Time;durP1;ratioP1;P1;durP2;ratioP2;P2;SDS_P1;SDS_P2;PMS_P1;PMS_P2;Temp;Humidity;BMP_temperature;BMP_pressure;BME280_temperature;BME280_humidity;BME280_pressure;Samples;Min_cycle;Max_cycle;Signal;HPM_P1;HPM_P2
2023/10/21 00:09:20;;;;;;;10.75;5.90;;;13.30;99.90;;;;;;20104698;29;20049;-42
2023/10/21 00:19:21;;;;;;;12.93;6.43;;;13.20;99.90;;;;;;20102529;29;20736;-42
2023/10/21 00:29:21;;;;;;;14.73;7.07;;;13.20;99.90;;;;;;20100689;29;20096;-42
2023/10/21 00:39:22;;;;;;;13.85;6.10;;;13.30;99.90;;;;;;20102983;29;20304;-42
2023/10/21 00:49:23;;;;;;;13.15;6.25;;;13.20;99.90;;;;;;20101916;29;20041;-42
2023/10/21 00:59:24;;;;;;;12.57;6.70;;;13.20;99.90;;;;;;20098369;29;20394;-42
2023/10/21 01:09:26;;;;;;;12.13;6.00;;;13.20;99.90;;;;;;20096138;29;20093;-42
2023/10/21 01:19:26;;;;;;;11.43;5.75;;;13.10;99.90;;;;;;20102174;29;20063;-42
2023/10/21 01:29:27;;;;;;;9.73;5.25;;;13.10;99.90;;;;;;20107588;29;20057;-42
2023/10/21 01:39:27;;;;;;;9.20;5.53;;;13.10;99.90;;;;;;20103978;29;20151;-42
2023/10/21 01:49:28;;;;;;;11.48;6.25;;;13.00;99.90;;;;;;20104339;29;20102;-42
2023/10/21 01:59:29;;;;;;;10.60;6.65;;;13.10;99.90;;;;;;20105335;29;20049;-42
2023/10/21 02:09:29;;;;;;;14.65;7.38;;;13.00;99.90;;;;;;20105495;29;20063;-42
2023/10/21 02:19:30;;;;;;;14.20;7.00;;;12.90;99.90;;;;;;20100970;29;20064;-42
2023/10/21 02:29:31;;;;;;;14.63;7.00;;;13.00;99.90;;;;;;20104528;29;20049;-42
2023/10/21 02:39:32;;;;;;;11.85;7.85;;;12.80;99.90;;;;;;20117649;29;20081;-42
2023/10/21 02:49:32;;;;;;;9.68;6.28;;;12.80;99.90;;;;;;20112732;29;22617;-42
2023/10/21 02:59:34;;;;;;;9.90;6.60;;;12.80;99.90;;;;;;20113357;29;20045;-42
2023/10/21 03:09:35;;;;;;;10.40;7.53;;;12.80;99.90;;;;;;20111167;29;20053;-42
2023/10/21 03:19:35;;;;;;;12.48;6.90;;;12.80;99.90;;;;;;20110084;29;20537;-42
2023/10/21 03:29:36;;;;;;;13.55;8.05;;;12.80;99.90;;;;;;20113231;29;20053;-42
2023/10/21 03:39:37;;;;;;;10.85;6.30;;;12.90;99.90;;;;;;20109382;29;20037;-42
2023/10/21 03:49:37;;;;;;;14.20;6.72;;;12.70;99.90;;;;;;20107408;29;20057;-42
2023/10/21 03:59:38;;;;;;;11.60;6.22;;;12.80;99.90;;;;;;20109594;29;20160;-42
2023/10/21 04:09:39;;;;;;;13.15;7.57;;;12.90;99.90;;;;;;20104084;29;20530;-42
2023/10/21 04:19:40;;;;;;;9.50;6.20;;;12.90;99.90;;;;;;20075177;29;20061;-42
2023/10/21 04:29:40;;;;;;;14.05;6.80;;;12.80;99.90;;;;;;20031769;29;20050;-42
2023/10/21 04:39:41;;;;;;;8.38;6.13;;;13.00;99.90;;;;;;20026282;29;20149;-42
2023/10/21 04:49:43;;;;;;;12.23;6.22;;;13.00;99.90;;;;;;20024745;29;20064;-42
2023/10/21 04:59:44;;;;;;;10.80;5.63;;;13.00;99.90;;;;;;20028141;29;20499;-42
2023/10/21 05:09:45;;;;;;;9.00;5.72;;;13.10;99.90;;;;;;20026323;29;20061;-41
2023/10/21 05:19:45;;;;;;;13.93;7.20;;;13.10;99.90;;;;;;20059666;29;20085;-42
2023/10/21 05:29:46;;;;;;;12.20;6.72;;;13.20;99.90;;;;;;20104425;29;20422;-42
2023/10/21 05:39:47;;;;;;;11.25;6.60;;;13.20;99.90;;;;;;20101250;29;20136;-42
2023/10/21 05:49:47;;;;;;;15.73;6.15;;;13.30;99.90;;;;;;20099016;29;20049;-41
2023/10/21 05:59:48;;;;;;;13.45;6.50;;;13.30;99.90;;;;;;20100783;29;20050;-42
2023/10/21 06:09:49;;;;;;;14.00;6.28;;;13.30;99.90;;;;;;20118485;29;20052;-42
2023/10/21 06:19:49;;;;;;;13.70;6.15;;;13.20;99.90;;;;;;20118391;29;20049;-42
2023/10/21 06:29:50;;;;;;;12.87;6.03;;;13.20;99.90;;;;;;20117016;29;20120;-42
2023/10/21 06:39:50;;;;;;;11.60;5.28;;;13.10;99.90;;;;;;20115396;29;20581;-42
2023/10/21 06:49:51;;;;;;;13.25;5.95;;;13.20;99.90;;;;;;20113427;29;20124;-42
2023/10/21 06:59:52;;;;;;;11.03;5.57;;;13.30;99.90;;;;;;20110456;29;20176;-42
2023/10/21 07:09:52;;;;;;;10.07;4.50;;;13.40;99.90;;;;;;20111078;29;20121;-42
2023/10/21 07:19:55;;;;;;;10.30;4.40;;;13.50;99.90;;;;;;20075578;29;20057;-42
2023/10/21 07:29:55;;;;;;;9.82;4.45;;;13.60;99.90;;;;;;20092500;29;20125;-41
2023/10/21 07:40:00;;;;;;;8.80;4.35;;;13.70;99.90;;;;;;20090591;29;20041;-42
2023/10/21 07:50:05;;;;;;;6.93;4.18;;;13.70;99.90;;;;;;20103877;29;20041;-42
2023/10/21 08:00:06;;;;;;;6.72;3.70;;;13.50;99.90;;;;;;20112407;29;20124;-41
2023/10/21 08:10:07;;;;;;;9.43;3.80;;;13.50;99.90;;;;;;20100106;29;20045;-42
2023/10/21 08:20:09;;;;;;;6.32;3.50;;;13.50;99.90;;;;;;20096188;29;20208;-41
2023/10/21 08:30:10;;;;;;;6.40;4.10;;;13.60;99.90;;;;;;20095469;29;20072;-41
2023/10/21 08:40:11;;;;;;;6.07;3.63;;;13.50;99.90;;;;;;20088170;29;21550;-41
2023/10/21 08:50:15;;;;;;;4.90;3.70;;;13.50;99.90;;;;;;20097485;29;20121;-41
2023/10/21 09:00:17;;;;;;;6.30;2.80;;;13.50;99.90;;;;;;20085118;29;20045;-42
2023/10/21 09:10:18;;;;;;;2.90;1.80;;;13.60;99.90;;;;;;20090194;29;20049;-42
2023/10/21 09:20:22;;;;;;;4.45;1.50;;;13.60;99.90;;;;;;20080924;29;20152;-42
2023/10/21 09:30:27;;;;;;;4.57;1.10;;;13.50;99.90;;;;;;20085787;29;20096;-42
2023/10/21 09:40:28;;;;;;;1.95;0.77;;;13.50;99.90;;;;;;20094289;29;20045;-42
2023/10/21 09:50:29;;;;;;;2.03;0.95;;;13.50;94.30;;;;;;20101372;29;20097;-42
2023/10/21 10:00:30;;;;;;;4.75;0.90;;;13.60;90.00;;;;;;20068275;29;20498;-42
2023/10/21 10:10:32;;;;;;;3.75;0.70;;;13.70;36.00;;;;;;20088926;29;20084;-42
2023/10/21 10:20:32;;;;;;;2.90;0.85;;;13.80;25.20;;;;;;20096984;29;20053;-42
2023/10/21 10:30:34;;;;;;;3.63;1.13;;;14.00;4.90;;;;;;20105047;29;20148;-42
2023/10/21 10:40:41;;;;;;;3.40;0.80;;;14.30;1.00;;;;;;20121862;29;20041;-42
2023/10/21 10:50:42;;;;;;;4.95;1.13;;;14.40;1.00;;;;;;20112683;29;20201;-42
2023/10/21 11:00:45;;;;;;;3.15;0.85;;;14.60;1.00;;;;;;20135352;29;20085;-42
2023/10/21 11:10:45;;;;;;;2.20;0.80;;;14.70;1.00;;;;;;20119580;29;20049;-42
2023/10/21 11:20:48;;;;;;;4.75;1.05;;;14.80;1.00;;;;;;20122517;29;20577;-42
2023/10/21 11:30:49;;;;;;;4.03;0.90;;;14.80;1.00;;;;;;20114827;29;20056;-42
2023/10/21 11:40:49;;;;;;;8.00;1.20;;;14.90;1.00;;;;;;20102926;29;20124;-42
2023/10/21 11:50:50;;;;;;;6.18;0.80;;;15.20;1.00;;;;;;20097140;29;20572;-42
2023/10/21 12:41:56;;;;;;;7.57;1.00;;;16.00;1.00;;;;;;20078503;29;20060;-42
2023/10/21 12:51:58;;;;;;;3.78;0.98;;;16.10;1.00;;;;;;20088293;29;20125;-41
2023/10/21 13:01:59;;;;;;;5.47;1.00;;;15.70;1.00;;;;;;20086600;29;20380;-42
2023/10/21 13:12:00;;;;;;;5.72;1.48;;;15.40;1.00;;;;;;20086658;29;20123;-41
2023/10/21 13:22:05;;;;;;;6.80;1.50;;;15.50;1.00;;;;;;20087847;29;20057;-42
2023/10/21 13:32:07;;;;;;;4.93;1.48;;;15.50;1.00;;;;;;20085192;29;22199;-42
2023/10/21 13:42:08;;;;;;;9.02;1.38;;;15.50;1.00;;;;;;20093804;29;22353;-42
2023/10/21 13:52:08;;;;;;;5.68;1.00;;;15.30;1.00;;;;;;20084393;29;20106;-42
2023/10/21 14:02:11;;;;;;;6.32;1.45;;;15.20;1.00;;;;;;20099403;29;20048;-42
2023/10/21 14:12:12;;;;;;;6.55;1.20;;;15.20;1.00;;;;;;20112561;29;20064;-42
2023/10/21 14:22:12;;;;;;;5.70;1.13;;;14.80;1.00;;;;;;20111401;29;20053;-42
2023/10/21 14:32:15;;;;;;;7.18;1.40;;;14.70;1.00;;;;;;20121772;29;20363;-42
2023/10/21 14:42:17;;;;;;;9.25;1.40;;;14.50;1.00;;;;;;20123645;29;20129;-42
2023/10/21 14:52:17;;;;;;;11.38;1.60;;;14.10;1.00;;;;;;20119814;29;20128;-42
2023/10/21 15:02:19;;;;;;;9.15;1.40;;;13.80;1.00;;;;;;20124714;29;20064;-41
2023/10/21 15:12:20;;;;;;;7.97;1.33;;;13.60;1.00;;;;;;20125846;29;20610;-41
2023/10/21 15:22:20;;;;;;;8.05;1.48;;;13.40;13.10;;;;;;20123861;29;20125;-41
2023/10/21 15:32:21;;;;;;;9.00;1.80;;;13.10;39.80;;;;;;20122805;29;20045;-42
2023/10/21 15:42:22;;;;;;;15.02;3.47;;;12.90;80.50;;;;;;20125912;29;20117;-41
2023/10/21 15:52:23;;;;;;;9.23;2.03;;;13.00;96.10;;;;;;20121302;29;20049;-41
2023/10/21 16:02:23;;;;;;;11.55;2.00;;;12.70;99.90;;;;;;20120651;29;20039;-40
2023/10/21 16:12:24;;;;;;;9.88;1.70;;;12.70;99.90;;;;;;20122302;29;20092;-41
2023/10/21 16:22:26;;;;;;;11.70;2.00;;;12.60;99.90;;;;;;20116305;29;20528;-41
2023/10/21 16:32:27;;;;;;;7.85;1.58;;;12.50;99.90;;;;;;20111982;29;20048;-41
2023/10/21 16:42:28;;;;;;;9.52;2.10;;;12.50;99.90;;;;;;20117011;29;20093;-41
2023/10/21 16:52:28;;;;;;;13.35;1.80;;;12.50;99.90;;;;;;20113798;29;20041;-41
2023/10/21 17:02:30;;;;;;;13.77;3.25;;;12.60;99.90;;;;;;20113542;29;20152;-41
2023/10/21 17:12:32;;;;;;;6.63;1.48;;;12.60;99.90;;;;;;20115146;29;20048;-42
2023/10/21 17:22:32;;;;;;;7.45;2.40;;;12.70;99.90;;;;;;20111450;29;20506;-41
2023/10/21 17:32:33;;;;;;;7.00;1.52;;;12.80;99.90;;;;;;20112079;29;20064;-41
2023/10/21 17:42:33;;;;;;;8.15;1.50;;;12.90;99.90;;;;;;20116014;29;20470;-42
2023/10/21 17:52:34;;;;;;;8.25;1.48;;;12.90;99.90;;;;;;20111571;29;20077;-42
2023/10/21 18:02:35;;;;;;;9.13;1.55;;;13.10;76.50;;;;;;20122502;29;20045;-41
2023/10/21 18:12:35;;;;;;;9.15;1.63;;;13.20;52.70;;;;;;20129605;29;20056;-41
2023/10/21 18:22:36;;;;;;;7.75;1.63;;;13.30;44.50;;;;;;20124808;29;20060;-41
2023/10/21 18:32:37;;;;;;;6.80;1.38;;;13.30;35.10;;;;;;20121935;29;20134;-41
2023/10/21 18:42:37;;;;;;;7.90;1.40;;;13.30;28.30;;;;;;20124109;29;20053;-42
2023/10/21 18:52:38;;;;;;;6.93;1.30;;;13.40;13.00;;;;;;20124919;29;20510;-41
2023/10/21 19:02:38;;;;;;;4.45;1.05;;;13.40;6.10;;;;;;20122520;29;20061;-41
2023/10/21 19:12:39;;;;;;;8.25;1.42;;;13.60;1.00;;;;;;20122745;29;20061;-41
2023/10/21 19:22:41;;;;;;;6.57;1.30;;;13.70;1.00;;;;;;20121138;29;21718;-41
2023/10/21 19:32:41;;;;;;;6.65;1.10;;;13.70;1.00;;;;;;20113567;29;20049;-42
2023/10/21 19:42:42;;;;;;;9.77;1.10;;;13.60;1.00;;;;;;20117291;29;20078;-42
2023/10/21 19:52:43;;;;;;;6.30;1.10;;;13.80;1.00;;;;;;20118218;29;20049;-41
2023/10/21 20:02:43;;;;;;;8.97;1.20;;;13.90;1.00;;;;;;20114124;29;20588;-42
2023/10/21 20:12:44;;;;;;;3.97;0.95;;;14.10;1.00;;;;;;20115126;29;20442;-41
2023/10/21 20:22:44;;;;;;;6.55;0.82;;;14.20;1.00;;;;;;20098263;29;20057;-41
2023/10/21 20:32:48;;;;;;;6.57;1.10;;;14.20;1.00;;;;;;20098707;29;20057;-41
2023/10/21 20:42:48;;;;;;;8.57;1.30;;;14.30;1.00;;;;;;20112486;29;20104;-41
2023/10/21 20:52:49;;;;;;;6.25;1.35;;;14.30;1.00;;;;;;20105532;29;20132;-41
2023/10/21 21:02:50;;;;;;;4.18;0.75;;;14.30;1.00;;;;;;20102039;29;20053;-41
2023/10/21 21:12:51;;;;;;;4.68;0.90;;;14.40;1.00;;;;;;20097991;29;20061;-41
2023/10/21 21:22:52;;;;;;;5.00;0.80;;;14.40;1.00;;;;;;20092302;29;20122;-42
2023/10/21 21:32:52;;;;;;;5.18;0.70;;;14.30;1.00;;;;;;20095914;29;20056;-41
2023/10/21 21:42:53;;;;;;;5.23;0.87;;;14.30;1.00;;;;;;20101434;29;20045;-41
2023/10/21 21:52:53;;;;;;;5.45;0.90;;;14.20;1.00;;;;;;20095567;29;20057;-41
2023/10/21 22:02:54;;;;;;;4.82;0.85;;;14.30;1.00;;;;;;20097098;29;20048;-41
2023/10/21 22:12:54;;;;;;;4.97;0.73;;;14.20;1.00;;;;;;20092803;29;20052;-41
2023/10/21 22:22:55;;;;;;;3.05;0.68;;;14.10;1.00;;;;;;20093517;29;20569;-41
2023/10/21 22:32:55;;;;;;;4.00;0.70;;;13.70;1.60;;;;;;20093094;29;20056;-41
2023/10/21 22:42:56;;;;;;;4.05;0.80;;;13.50;14.90;;;;;;20104300;29;20173;-41
2023/10/21 22:52:57;;;;;;;6.10;0.70;;;13.30;35.20;;;;;;20122056;29;20492;-41
2023/10/21 23:03:01;;;;;;;3.73;0.63;;;13.20;64.90;;;;;;20107595;29;20082;-41
2023/10/21 23:13:01;;;;;;;3.45;0.65;;;13.10;90.30;;;;;;20105874;29;20542;-41
2023/10/21 23:23:04;;;;;;;2.80;0.70;;;12.90;99.90;;;;;;20100986;29;20127;-41
2023/10/21 23:33:04;;;;;;;3.33;0.65;;;12.80;99.90;;;;;;20103721;29;20158;-41
2023/10/21 23:43:07;;;;;;;4.95;0.90;;;12.80;99.90;;;;;;20102986;29;20076;-41
2023/10/21 23:53:07;;;;;;;3.80;0.90;;;12.70;99.90;;;;;;20105731;29;20172;-41
